sensor_id;sensor_type;location;lat;lon;timestamp;temperature;humidity
25906;DHT22;13713;52.552;13.204;2022-10-23T00:01:24;19.70;73.90
25906;DHT22;13713;52.552;13.204;2022-10-23T00:03:57;19.70;73.90
25906;DHT22;13713;52.552;13.204;2022-10-23T00:06:23;19.70;73.90
25906;DHT22;13713;52.552;13.204;2022-10-23T00:08:50;19.70;73.90
25906;DHT22;13713;52.552;13.204;2022-10-23T00:11:19;19.70;73.90
25906;DHT22;13713;52.552;13.204;2022-10-23T00:13:45;19.70;73.90
25906;DHT22;13713;52.552;13.204;2022-10-23T00:16:11;19.70;74.00
25906;DHT22;13713;52.552;13.204;2022-10-23T00:18:38;19.70;73.90
25906;DHT22;13713;52.552;13.204;2022-10-23T00:21:05;19.70;74.00
25906;DHT22;13713;52.552;13.204;2022-10-23T00:23:31;19.70;73.90
25906;DHT22;13713;52.552;13.204;2022-10-23T00:25:56;19.70;74.00
25906;DHT22;13713;52.552;13.204;2022-10-23T00:28:22;19.70;73.90
25906;DHT22;13713;52.552;13.204;2022-10-23T00:30:47;19.70;73.90
25906;DHT22;13713;52.552;13.204;2022-10-23T00:33:14;19.70;73.90
25906;DHT22;13713;52.552;13.204;2022-10-23T00:35:40;19.70;73.90
25906;DHT22;13713;52.552;13.204;2022-10-23T00:38:07;19.70;73.90
25906;DHT22;13713;52.552;13.204;2022-10-23T00:40:33;19.70;73.90
25906;DHT22;13713;52.552;13.204;2022-10-23T00:42:59;19.70;73.90
25906;DHT22;13713;52.552;13.204;2022-10-23T00:45:30;19.70;73.90
25906;DHT22;13713;52.552;13.204;2022-10-23T00:47:59;19.60;73.90
25906;DHT22;13713;52.552;13.204;2022-10-23T00:50:26;19.70;74.00
25906;DHT22;13713;52.552;13.204;2022-10-23T00:52:55;19.70;73.90
25906;DHT22;13713;52.552;13.204;2022-10-23T00:55:22;19.60;73.90
25906;DHT22;13713;52.552;13.204;2022-10-23T00:57:48;19.70;73.90
25906;DHT22;13713;52.552;13.204;2022-10-23T01:00:22;19.60;73.90
25906;DHT22;13713;52.552;13.204;2022-10-23T01:02:48;19.70;73.90
25906;DHT22;13713;52.552;13.204;2022-10-23T01:05:14;19.60;73.90
25906;DHT22;13713;52.552;13.204;2022-10-23T01:08:05;19.60;73.90
25906;DHT22;13713;52.552;13.204;2022-10-23T01:10:53;19.60;73.90
25906;DHT22;13713;52.552;13.204;2022-10-23T01:13:38;19.70;73.90
25906;DHT22;13713;52.552;13.204;2022-10-23T01:16:17;19.70;73.90
25906;DHT22;13713;52.552;13.204;2022-10-23T01:21:48;19.70;73.90
25906;DHT22;13713;52.552;13.204;2022-10-23T01:27:19;19.70;73.90
25906;DHT22;13713;52.552;13.204;2022-10-23T01:29:52;19.70;73.90
25906;DHT22;13713;52.552;13.204;2022-10-23T01:32:43;19.60;73.80
25906;DHT22;13713;52.552;13.204;2022-10-23T01:35:17;19.60;73.80
25906;DHT22;13713;52.552;13.204;2022-10-23T01:38:00;19.70;73.90
25906;DHT22;13713;52.552;13.204;2022-10-23T01:40:29;19.60;73.90
25906;DHT22;13713;52.552;13.204;2022-10-23T01:43:00;19.60;73.90
25906;DHT22;13713;52.552;13.204;2022-10-23T01:45:38;19.60;73.80
25906;DHT22;13713;52.552;13.204;2022-10-23T01:48:09;19.60;73.80
25906;DHT22;13713;52.552;13.204;2022-10-23T01:50:38;19.60;73.80
25906;DHT22;13713;52.552;13.204;2022-10-23T01:53:04;19.60;73.80
25906;DHT22;13713;52.552;13.204;2022-10-23T01:55:31;19.60;73.90
25906;DHT22;13713;52.552;13.204;2022-10-23T01:58:01;19.60;73.90
25906;DHT22;13713;52.552;13.204;2022-10-23T02:00:37;19.60;73.80
25906;DHT22;13713;52.552;13.204;2022-10-23T02:03:05;19.60;73.80
25906;DHT22;13713;52.552;13.204;2022-10-23T02:05:33;19.60;73.80
25906;DHT22;13713;52.552;13.204;2022-10-23T02:08:01;19.60;73.90
25906;DHT22;13713;52.552;13.204;2022-10-23T02:10:37;19.60;73.80
25906;DHT22;13713;52.552;13.204;2022-10-23T02:13:14;19.60;73.80
25906;DHT22;13713;52.552;13.204;2022-10-23T02:16:02;19.60;73.80
25906;DHT22;13713;52.552;13.204;2022-10-23T02:18:37;19.60;73.80
25906;DHT22;13713;52.552;13.204;2022-10-23T02:21:19;19.60;73.90
25906;DHT22;13713;52.552;13.204;2022-10-23T02:23:55;19.60;74.70
25906;DHT22;13713;52.552;13.204;2022-10-23T02:29:09;19.60;73.80
25906;DHT22;13713;52.552;13.204;2022-10-23T02:31:39;19.60;73.80
25906;DHT22;13713;52.552;13.204;2022-10-23T02:34:05;19.60;73.80
25906;DHT22;13713;52.552;13.204;2022-10-23T02:36:31;19.60;73.80
25906;DHT22;13713;52.552;13.204;2022-10-23T02:38:58;19.60;73.80
25906;DHT22;13713;52.552;13.204;2022-10-23T02:41:27;19.60;73.90
25906;DHT22;13713;52.552;13.204;2022-10-23T02:52:20;19.60;73.80
25906;DHT22;13713;52.552;13.204;2022-10-23T02:57:31;19.60;73.80
25906;DHT22;13713;52.552;13.204;2022-10-23T03:00:06;19.60;73.80
25906;DHT22;13713;52.552;13.204;2022-10-23T03:02:36;19.60;73.80
25906;DHT22;13713;52.552;13.204;2022-10-23T03:05:09;19.60;73.80
25906;DHT22;13713;52.552;13.204;2022-10-23T03:07:36;19.60;74.60
25906;DHT22;13713;52.552;13.204;2022-10-23T03:10:06;19.60;73.80
25906;DHT22;13713;52.552;13.204;2022-10-23T03:12:32;19.60;73.80
25906;DHT22;13713;52.552;13.204;2022-10-23T03:14:58;19.50;74.50
25906;DHT22;13713;52.552;13.204;2022-10-23T03:17:23;19.60;73.80
25906;DHT22;13713;52.552;13.204;2022-10-23T03:19:53;19.50;73.70
25906;DHT22;13713;52.552;13.204;2022-10-23T03:22:18;19.50;73.70
25906;DHT22;13713;52.552;13.204;2022-10-23T03:24:44;19.60;73.70
25906;DHT22;13713;52.552;13.204;2022-10-23T03:27:09;19.60;73.70
25906;DHT22;13713;52.552;13.204;2022-10-23T03:29:37;19.50;73.70
25906;DHT22;13713;52.552;13.204;2022-10-23T03:32:03;19.50;73.70
25906;DHT22;13713;52.552;13.204;2022-10-23T03:34:28;19.50;73.70
25906;DHT22;13713;52.552;13.204;2022-10-23T03:36:54;19.50;73.70
25906;DHT22;13713;52.552;13.204;2022-10-23T03:39:20;19.60;73.70
25906;DHT22;13713;52.552;13.204;2022-10-23T03:41:46;19.50;73.70
25906;DHT22;13713;52.552;13.204;2022-10-23T03:44:14;19.50;73.70
25906;DHT22;13713;52.552;13.204;2022-10-23T03:46:43;19.50;74.50
25906;DHT22;13713;52.552;13.204;2022-10-23T03:49:09;19.50;74.50
25906;DHT22;13713;52.552;13.204;2022-10-23T03:51:35;19.50;73.70
25906;DHT22;13713;52.552;13.204;2022-10-23T03:54:00;19.50;73.60
25906;DHT22;13713;52.552;13.204;2022-10-23T03:56:26;19.50;73.70
25906;DHT22;13713;52.552;13.204;2022-10-23T03:58:52;19.50;73.60
25906;DHT22;13713;52.552;13.204;2022-10-23T04:01:17;19.50;73.60
25906;DHT22;13713;52.552;13.204;2022-10-23T04:03:44;19.50;73.60
25906;DHT22;13713;52.552;13.204;2022-10-23T04:06:10;19.50;73.60
25906;DHT22;13713;52.552;13.204;2022-10-23T04:08:36;19.50;73.60
25906;DHT22;13713;52.552;13.204;2022-10-23T04:11:08;19.50;73.60
25906;DHT22;13713;52.552;13.204;2022-10-23T04:13:42;19.50;73.60
25906;DHT22;13713;52.552;13.204;2022-10-23T04:16:08;19.50;73.60
25906;DHT22;13713;52.552;13.204;2022-10-23T04:18:34;19.50;73.60
25906;DHT22;13713;52.552;13.204;2022-10-23T04:20:59;19.50;73.60
25906;DHT22;13713;52.552;13.204;2022-10-23T04:23:25;19.50;73.60
25906;DHT22;13713;52.552;13.204;2022-10-23T04:25:55;19.50;73.50
25906;DHT22;13713;52.552;13.204;2022-10-23T04:28:23;19.50;73.60
25906;DHT22;13713;52.552;13.204;2022-10-23T04:30:49;19.50;73.60
25906;DHT22;13713;52.552;13.204;2022-10-23T04:33:14;19.50;73.50
25906;DHT22;13713;52.552;13.204;2022-10-23T04:35:40;19.50;73.50
25906;DHT22;13713;52.552;13.204;2022-10-23T04:38:05;19.50;73.50
25906;DHT22;13713;52.552;13.204;2022-10-23T04:40:31;19.50;73.60
25906;DHT22;13713;52.552;13.204;2022-10-23T04:42:57;19.50;73.50
25906;DHT22;13713;52.552;13.204;2022-10-23T04:45:23;19.50;73.50
25906;DHT22;13713;52.552;13.204;2022-10-23T04:47:48;19.50;73.50
25906;DHT22;13713;52.552;13.204;2022-10-23T04:50:14;19.50;73.50
25906;DHT22;13713;52.552;13.204;2022-10-23T04:53:12;19.50;73.50
25906;DHT22;13713;52.552;13.204;2022-10-23T04:55:58;19.50;73.50
25906;DHT22;13713;52.552;13.204;2022-10-23T04:58:36;19.50;73.50
25906;DHT22;13713;52.552;13.204;2022-10-23T05:01:02;19.50;73.50
25906;DHT22;13713;52.552;13.204;2022-10-23T05:03:28;19.50;73.50
25906;DHT22;13713;52.552;13.204;2022-10-23T05:05:55;19.50;73.50
25906;DHT22;13713;52.552;13.204;2022-10-23T05:08:38;19.40;73.40
25906;DHT22;13713;52.552;13.204;2022-10-23T05:11:07;19.40;73.40
25906;DHT22;13713;52.552;13.204;2022-10-23T05:13:38;19.40;73.40
25906;DHT22;13713;52.552;13.204;2022-10-23T05:16:04;19.50;73.50
25906;DHT22;13713;52.552;13.204;2022-10-23T05:18:43;19.40;73.40
25906;DHT22;13713;52.552;13.204;2022-10-23T05:21:18;19.40;73.40
25906;DHT22;13713;52.552;13.204;2022-10-23T05:23:48;19.50;73.40
25906;DHT22;13713;52.552;13.204;2022-10-23T05:26:14;19.40;73.30
25906;DHT22;13713;52.552;13.204;2022-10-23T05:28:43;19.40;73.40
25906;DHT22;13713;52.552;13.204;2022-10-23T05:31:13;19.40;73.30
25906;DHT22;13713;52.552;13.204;2022-10-23T05:33:41;19.40;73.30
25906;DHT22;13713;52.552;13.204;2022-10-23T05:36:08;19.40;73.30
25906;DHT22;13713;52.552;13.204;2022-10-23T05:38:34;19.40;73.30
25906;DHT22;13713;52.552;13.204;2022-10-23T05:41:09;19.40;73.30
25906;DHT22;13713;52.552;13.204;2022-10-23T05:43:34;19.40;73.30
25906;DHT22;13713;52.552;13.204;2022-10-23T05:46:08;19.40;73.30
25906;DHT22;13713;52.552;13.204;2022-10-23T05:48:43;19.40;73.30
25906;DHT22;13713;52.552;13.204;2022-10-23T05:51:38;19.40;73.30
25906;DHT22;13713;52.552;13.204;2022-10-23T05:54:19;19.40;73.30
25906;DHT22;13713;52.552;13.204;2022-10-23T05:56:54;19.40;73.30
25906;DHT22;13713;52.552;13.204;2022-10-23T05:59:32;19.40;73.30
25906;DHT22;13713;52.552;13.204;2022-10-23T06:02:30;19.40;73.30
25906;DHT22;13713;52.552;13.204;2022-10-23T06:05:05;19.40;73.30
25906;DHT22;13713;52.552;13.204;2022-10-23T06:08:05;19.40;73.20
25906;DHT22;13713;52.552;13.204;2022-10-23T06:10:31;19.40;73.20
25906;DHT22;13713;52.552;13.204;2022-10-23T06:13:02;19.40;73.20
25906;DHT22;13713;52.552;13.204;2022-10-23T06:15:28;19.40;73.20
25906;DHT22;13713;52.552;13.204;2022-10-23T06:18:14;19.40;73.20
25906;DHT22;13713;52.552;13.204;2022-10-23T06:20:51;19.40;73.20
25906;DHT22;13713;52.552;13.204;2022-10-23T06:23:23;19.40;73.20
25906;DHT22;13713;52.552;13.204;2022-10-23T06:26:11;19.40;73.20
25906;DHT22;13713;52.552;13.204;2022-10-23T06:28:49;19.40;73.20
25906;DHT22;13713;52.552;13.204;2022-10-23T06:31:16;19.40;73.20
25906;DHT22;13713;52.552;13.204;2022-10-23T06:33:44;19.30;73.10
25906;DHT22;13713;52.552;13.204;2022-10-23T06:36:10;19.40;73.10
25906;DHT22;13713;52.552;13.204;2022-10-23T06:38:38;19.30;73.10
25906;DHT22;13713;52.552;13.204;2022-10-23T06:41:07;19.30;73.00
25906;DHT22;13713;52.552;13.204;2022-10-23T06:43:37;19.30;73.00
25906;DHT22;13713;52.552;13.204;2022-10-23T06:46:34;19.30;73.00
25906;DHT22;13713;52.552;13.204;2022-10-23T06:49:26;19.30;73.00
25906;DHT22;13713;52.552;13.204;2022-10-23T06:51:57;19.30;73.00
25906;DHT22;13713;52.552;13.204;2022-10-23T06:54:22;19.30;73.00
25906;DHT22;13713;52.552;13.204;2022-10-23T06:56:48;19.30;72.90
25906;DHT22;13713;52.552;13.204;2022-10-23T06:59:17;19.40;73.10
25906;DHT22;13713;52.552;13.204;2022-10-23T07:01:44;19.30;72.90
25906;DHT22;13713;52.552;13.204;2022-10-23T07:04:10;19.40;73.10
25906;DHT22;13713;52.552;13.204;2022-10-23T07:06:40;19.30;72.90
25906;DHT22;13713;52.552;13.204;2022-10-23T07:09:06;19.30;72.90
25906;DHT22;13713;52.552;13.204;2022-10-23T07:11:55;19.30;72.90
25906;DHT22;13713;52.552;13.204;2022-10-23T07:14:27;19.30;72.90
25906;DHT22;13713;52.552;13.204;2022-10-23T07:16:57;19.40;73.00
25906;DHT22;13713;52.552;13.204;2022-10-23T07:19:25;19.40;73.00
25906;DHT22;13713;52.552;13.204;2022-10-23T07:21:55;19.40;73.00
25906;DHT22;13713;52.552;13.204;2022-10-23T07:24:53;19.40;72.90
25906;DHT22;13713;52.552;13.204;2022-10-23T07:27:25;19.40;72.90
25906;DHT22;13713;52.552;13.204;2022-10-23T07:29:54;19.40;72.90
25906;DHT22;13713;52.552;13.204;2022-10-23T07:32:20;19.40;72.90
25906;DHT22;13713;52.552;13.204;2022-10-23T07:35:12;19.40;72.80
25906;DHT22;13713;52.552;13.204;2022-10-23T07:37:42;19.40;72.80
25906;DHT22;13713;52.552;13.204;2022-10-23T07:40:11;19.40;72.80
25906;DHT22;13713;52.552;13.204;2022-10-23T07:42:42;19.40;72.80
25906;DHT22;13713;52.552;13.204;2022-10-23T07:45:08;19.40;72.80
25906;DHT22;13713;52.552;13.204;2022-10-23T07:47:36;19.40;72.80
25906;DHT22;13713;52.552;13.204;2022-10-23T07:50:02;19.40;72.80
25906;DHT22;13713;52.552;13.204;2022-10-23T07:52:28;19.40;72.70
25906;DHT22;13713;52.552;13.204;2022-10-23T07:55:09;19.40;72.80
25906;DHT22;13713;52.552;13.204;2022-10-23T07:57:38;19.40;72.70
25906;DHT22;13713;52.552;13.204;2022-10-23T08:00:10;19.40;72.80
25906;DHT22;13713;52.552;13.204;2022-10-23T08:02:39;19.40;72.70
25906;DHT22;13713;52.552;13.204;2022-10-23T08:05:06;19.40;72.70
25906;DHT22;13713;52.552;13.204;2022-10-23T08:07:38;19.40;72.70
25906;DHT22;13713;52.552;13.204;2022-10-23T08:10:05;19.40;72.70
25906;DHT22;13713;52.552;13.204;2022-10-23T08:12:32;19.40;72.70
25906;DHT22;13713;52.552;13.204;2022-10-23T08:14:57;19.40;72.70
25906;DHT22;13713;52.552;13.204;2022-10-23T08:17:29;19.40;72.70
25906;DHT22;13713;52.552;13.204;2022-10-23T08:20:02;19.40;72.70
25906;DHT22;13713;52.552;13.204;2022-10-23T08:22:33;19.40;72.70
25906;DHT22;13713;52.552;13.204;2022-10-23T08:25:02;19.40;72.60
25906;DHT22;13713;52.552;13.204;2022-10-23T08:27:27;19.40;72.60
25906;DHT22;13713;52.552;13.204;2022-10-23T08:29:53;19.40;72.60
25906;DHT22;13713;52.552;13.204;2022-10-23T08:32:19;19.40;72.60
25906;DHT22;13713;52.552;13.204;2022-10-23T08:35:14;19.40;72.60
25906;DHT22;13713;52.552;13.204;2022-10-23T08:37:40;19.40;72.60
25906;DHT22;13713;52.552;13.204;2022-10-23T08:40:16;19.40;72.60
25906;DHT22;13713;52.552;13.204;2022-10-23T08:46:02;19.50;72.70
25906;DHT22;13713;52.552;13.204;2022-10-23T08:52:24;19.40;72.60
25906;DHT22;13713;52.552;13.204;2022-10-23T08:54:59;19.40;72.60
25906;DHT22;13713;52.552;13.204;2022-10-23T08:57:29;19.40;72.70
25906;DHT22;13713;52.552;13.204;2022-10-23T09:00:06;19.40;72.60
25906;DHT22;13713;52.552;13.204;2022-10-23T09:02:39;19.40;72.60
25906;DHT22;13713;52.552;13.204;2022-10-23T09:05:14;19.40;72.60
25906;DHT22;13713;52.552;13.204;2022-10-23T09:08:00;19.40;72.60
25906;DHT22;13713;52.552;13.204;2022-10-23T09:10:57;19.40;72.70
25906;DHT22;13713;52.552;13.204;2022-10-23T09:14:12;19.40;72.70
25906;DHT22;13713;52.552;13.204;2022-10-23T09:19:18;19.40;72.60
25906;DHT22;13713;52.552;13.204;2022-10-23T09:21:48;19.40;72.60
25906;DHT22;13713;52.552;13.204;2022-10-23T09:24:17;19.40;72.60
25906;DHT22;13713;52.552;13.204;2022-10-23T09:26:47;19.40;72.60
25906;DHT22;13713;52.552;13.204;2022-10-23T09:29:23;19.40;72.60
25906;DHT22;13713;52.552;13.204;2022-10-23T09:31:54;19.40;72.60
25906;DHT22;13713;52.552;13.204;2022-10-23T09:34:22;19.40;72.60
25906;DHT22;13713;52.552;13.204;2022-10-23T09:37:25;19.40;72.60
25906;DHT22;13713;52.552;13.204;2022-10-23T09:40:51;19.40;72.60
25906;DHT22;13713;52.552;13.204;2022-10-23T09:43:32;19.40;72.60
25906;DHT22;13713;52.552;13.204;2022-10-23T09:45:38;19.40;72.60
25906;DHT22;13713;52.552;13.204;2022-10-23T09:48:14;19.40;72.60
25906;DHT22;13713;52.552;13.204;2022-10-23T09:50:46;19.40;72.60
25906;DHT22;13713;52.552;13.204;2022-10-23T09:53:25;19.40;72.60
25906;DHT22;13713;52.552;13.204;2022-10-23T09:55:55;19.40;72.60
25906;DHT22;13713;52.552;13.204;2022-10-23T09:58:36;19.40;72.60
25906;DHT22;13713;52.552;13.204;2022-10-23T10:01:03;19.40;72.60
25906;DHT22;13713;52.552;13.204;2022-10-23T10:03:48;19.40;72.70
25906;DHT22;13713;52.552;13.204;2022-10-23T10:06:23;19.40;72.60
25906;DHT22;13713;52.552;13.204;2022-10-23T10:08:53;19.40;72.60
25906;DHT22;13713;52.552;13.204;2022-10-23T10:11:36;19.40;72.60
25906;DHT22;13713;52.552;13.204;2022-10-23T10:14:12;19.40;72.60
25906;DHT22;13713;52.552;13.204;2022-10-23T10:16:51;19.40;72.60
25906;DHT22;13713;52.552;13.204;2022-10-23T10:22:34;19.40;72.60
25906;DHT22;13713;52.552;13.204;2022-10-23T10:25:28;19.40;72.60
25906;DHT22;13713;52.552;13.204;2022-10-23T10:28:27;19.40;72.60
25906;DHT22;13713;52.552;13.204;2022-10-23T10:31:23;19.40;72.60
25906;DHT22;13713;52.552;13.204;2022-10-23T10:34:21;19.40;72.70
25906;DHT22;13713;52.552;13.204;2022-10-23T10:36:55;19.40;72.60
25906;DHT22;13713;52.552;13.204;2022-10-23T10:39:51;19.40;72.60
25906;DHT22;13713;52.552;13.204;2022-10-23T10:50:46;19.40;72.60
25906;DHT22;13713;52.552;13.204;2022-10-23T10:56:01;19.40;72.60
25906;DHT22;13713;52.552;13.204;2022-10-23T10:58:42;19.40;72.60
25906;DHT22;13713;52.552;13.204;2022-10-23T11:01:29;19.50;72.80
25906;DHT22;13713;52.552;13.204;2022-10-23T11:04:10;19.50;72.70
25906;DHT22;13713;52.552;13.204;2022-10-23T11:06:38;19.50;72.70
25906;DHT22;13713;52.552;13.204;2022-10-23T11:09:35;19.40;72.60
25906;DHT22;13713;52.552;13.204;2022-10-23T11:12:02;19.50;72.70
25906;DHT22;13713;52.552;13.204;2022-10-23T11:14:31;19.50;72.70
25906;DHT22;13713;52.552;13.204;2022-10-23T11:19:26;19.50;72.70
25906;DHT22;13713;52.552;13.204;2022-10-23T11:22:09;19.50;72.70
25906;DHT22;13713;52.552;13.204;2022-10-23T11:30:48;19.50;72.70
25906;DHT22;13713;52.552;13.204;2022-10-23T11:36:04;19.50;72.70
25906;DHT22;13713;52.552;13.204;2022-10-23T11:38:33;19.50;72.70
25906;DHT22;13713;52.552;13.204;2022-10-23T11:41:01;19.50;72.70
25906;DHT22;13713;52.552;13.204;2022-10-23T11:45:55;19.50;72.70
25906;DHT22;13713;52.552;13.204;2022-10-23T11:48:44;19.50;72.70
25906;DHT22;13713;52.552;13.204;2022-10-23T11:51:32;19.50;72.70
25906;DHT22;13713;52.552;13.204;2022-10-23T11:59:53;19.50;72.70
25906;DHT22;13713;52.552;13.204;2022-10-23T12:02:27;19.50;72.70
25906;DHT22;13713;52.552;13.204;2022-10-23T12:05:04;19.50;72.70
25906;DHT22;13713;52.552;13.204;2022-10-23T12:07:38;19.50;72.80
25906;DHT22;13713;52.552;13.204;2022-10-23T12:10:16;19.50;72.70
25906;DHT22;13713;52.552;13.204;2022-10-23T12:12:57;19.50;72.70
25906;DHT22;13713;52.552;13.204;2022-10-23T12:15:23;19.50;72.70
25906;DHT22;13713;52.552;13.204;2022-10-23T12:17:52;19.50;72.70
25906;DHT22;13713;52.552;13.204;2022-10-23T12:20:35;19.50;72.70
25906;DHT22;13713;52.552;13.204;2022-10-23T12:26:37;19.50;72.70
25906;DHT22;13713;52.552;13.204;2022-10-23T12:35:13;19.50;72.70
25906;DHT22;13713;52.552;13.204;2022-10-23T12:38:15;19.50;72.70
25906;DHT22;13713;52.552;13.204;2022-10-23T12:40:44;19.50;72.70
25906;DHT22;13713;52.552;13.204;2022-10-23T12:43:28;19.50;72.70
25906;DHT22;13713;52.552;13.204;2022-10-23T12:45:56;19.50;72.70
25906;DHT22;13713;52.552;13.204;2022-10-23T12:48:24;19.50;72.80
25906;DHT22;13713;52.552;13.204;2022-10-23T12:50:53;19.50;72.70
25906;DHT22;13713;52.552;13.204;2022-10-23T12:53:21;19.50;72.70
25906;DHT22;13713;52.552;13.204;2022-10-23T12:55:59;19.50;73.50
25906;DHT22;13713;52.552;13.204;2022-10-23T12:58:33;19.50;72.70
25906;DHT22;13713;52.552;13.204;2022-10-23T13:01:04;19.50;72.70
25906;DHT22;13713;52.552;13.204;2022-10-23T13:03:31;19.50;72.70
25906;DHT22;13713;52.552;13.204;2022-10-23T13:05:59;19.50;72.70
25906;DHT22;13713;52.552;13.204;2022-10-23T13:08:37;19.50;72.70
25906;DHT22;13713;52.552;13.204;2022-10-23T13:11:23;19.50;72.70
25906;DHT22;13713;52.552;13.204;2022-10-23T13:13:52;19.50;72.70
25906;DHT22;13713;52.552;13.204;2022-10-23T13:16:23;19.50;72.70
25906;DHT22;13713;52.552;13.204;2022-10-23T13:18:49;19.50;72.70
25906;DHT22;13713;52.552;13.204;2022-10-23T13:21:23;19.50;72.70
25906;DHT22;13713;52.552;13.204;2022-10-23T13:23:50;19.50;72.70
25906;DHT22;13713;52.552;13.204;2022-10-23T13:26:23;19.50;72.70
25906;DHT22;13713;52.552;13.204;2022-10-23T13:28:50;19.50;72.70
25906;DHT22;13713;52.552;13.204;2022-10-23T13:33:46;19.50;72.70
25906;DHT22;13713;52.552;13.204;2022-10-23T13:38:40;19.50;72.70
25906;DHT22;13713;52.552;13.204;2022-10-23T13:41:18;19.50;72.70
25906;DHT22;13713;52.552;13.204;2022-10-23T13:43:46;19.50;72.70
25906;DHT22;13713;52.552;13.204;2022-10-23T13:46:13;19.50;72.70
25906;DHT22;13713;52.552;13.204;2022-10-23T13:48:39;19.50;72.70
25906;DHT22;13713;52.552;13.204;2022-10-23T13:51:14;19.50;72.70
25906;DHT22;13713;52.552;13.204;2022-10-23T13:53:41;19.50;72.70
25906;DHT22;13713;52.552;13.204;2022-10-23T13:56:09;19.50;72.70
25906;DHT22;13713;52.552;13.204;2022-10-23T13:58:36;19.50;72.70
25906;DHT22;13713;52.552;13.204;2022-10-23T14:01:01;19.50;72.70
25906;DHT22;13713;52.552;13.204;2022-10-23T14:03:27;19.50;72.70
25906;DHT22;13713;52.552;13.204;2022-10-23T14:05:52;19.50;72.70
25906;DHT22;13713;52.552;13.204;2022-10-23T14:08:18;19.50;72.70
25906;DHT22;13713;52.552;13.204;2022-10-23T14:10:44;19.50;72.70
25906;DHT22;13713;52.552;13.204;2022-10-23T14:13:10;19.50;72.70
25906;DHT22;13713;52.552;13.204;2022-10-23T14:15:35;19.50;72.70
25906;DHT22;13713;52.552;13.204;2022-10-23T14:18:01;19.50;72.70
25906;DHT22;13713;52.552;13.204;2022-10-23T14:20:27;19.50;72.70
25906;DHT22;13713;52.552;13.204;2022-10-23T14:22:52;19.50;72.70
25906;DHT22;13713;52.552;13.204;2022-10-23T14:25:18;19.50;72.80
25906;DHT22;13713;52.552;13.204;2022-10-23T14:27:44;19.50;72.70
25906;DHT22;13713;52.552;13.204;2022-10-23T14:30:10;19.50;72.70
25906;DHT22;13713;52.552;13.204;2022-10-23T14:32:35;19.50;72.70
25906;DHT22;13713;52.552;13.204;2022-10-23T14:35:01;19.50;72.70
25906;DHT22;13713;52.552;13.204;2022-10-23T14:37:32;19.50;72.70
25906;DHT22;13713;52.552;13.204;2022-10-23T14:39:58;19.50;72.70
25906;DHT22;13713;52.552;13.204;2022-10-23T14:42:24;19.50;72.70
25906;DHT22;13713;52.552;13.204;2022-10-23T14:44:50;19.50;72.70
25906;DHT22;13713;52.552;13.204;2022-10-23T14:47:17;19.50;72.70
25906;DHT22;13713;52.552;13.204;2022-10-23T14:49:47;19.50;72.70
25906;DHT22;13713;52.552;13.204;2022-10-23T14:52:14;19.50;72.70
25906;DHT22;13713;52.552;13.204;2022-10-23T14:54:40;19.50;72.70
25906;DHT22;13713;52.552;13.204;2022-10-23T14:57:06;19.50;72.70
25906;DHT22;13713;52.552;13.204;2022-10-23T14:59:31;19.50;72.70
25906;DHT22;13713;52.552;13.204;2022-10-23T15:01:57;19.50;72.70
25906;DHT22;13713;52.552;13.204;2022-10-23T15:04:23;19.50;72.70
25906;DHT22;13713;52.552;13.204;2022-10-23T15:06:48;19.50;72.70
25906;DHT22;13713;52.552;13.204;2022-10-23T15:09:14;19.50;72.70
25906;DHT22;13713;52.552;13.204;2022-10-23T15:11:40;19.50;72.70
25906;DHT22;13713;52.552;13.204;2022-10-23T15:14:05;19.50;72.70
25906;DHT22;13713;52.552;13.204;2022-10-23T15:16:31;19.50;72.70
25906;DHT22;13713;52.552;13.204;2022-10-23T15:18:57;19.50;72.70
25906;DHT22;13713;52.552;13.204;2022-10-23T15:21:23;19.50;72.70
25906;DHT22;13713;52.552;13.204;2022-10-23T15:23:49;19.50;72.80
25906;DHT22;13713;52.552;13.204;2022-10-23T15:26:19;19.50;72.70
25906;DHT22;13713;52.552;13.204;2022-10-23T15:28:55;19.50;72.80
25906;DHT22;13713;52.552;13.204;2022-10-23T15:34:05;19.50;72.70
25906;DHT22;13713;52.552;13.204;2022-10-23T15:36:32;19.50;72.70
25906;DHT22;13713;52.552;13.204;2022-10-23T15:38:57;19.50;72.80
25906;DHT22;13713;52.552;13.204;2022-10-23T15:41:28;19.50;72.70
25906;DHT22;13713;52.552;13.204;2022-10-23T15:43:54;19.50;72.70
25906;DHT22;13713;52.552;13.204;2022-10-23T15:46:20;19.50;72.70
25906;DHT22;13713;52.552;13.204;2022-10-23T15:48:45;19.40;72.70
25906;DHT22;13713;52.552;13.204;2022-10-23T15:51:11;19.50;72.80
25906;DHT22;13713;52.552;13.204;2022-10-23T15:53:36;19.50;72.80
25906;DHT22;13713;52.552;13.204;2022-10-23T15:56:02;19.40;72.70
25906;DHT22;13713;52.552;13.204;2022-10-23T15:58:28;19.40;72.70
25906;DHT22;13713;52.552;13.204;2022-10-23T16:00:53;19.50;72.80
25906;DHT22;13713;52.552;13.204;2022-10-23T16:03:19;19.50;72.80
25906;DHT22;13713;52.552;13.204;2022-10-23T16:05:45;19.40;72.70
25906;DHT22;13713;52.552;13.204;2022-10-23T16:08:11;19.40;72.70
25906;DHT22;13713;52.552;13.204;2022-10-23T16:10:40;19.50;72.80
25906;DHT22;13713;52.552;13.204;2022-10-23T16:13:06;19.40;72.70
25906;DHT22;13713;52.552;13.204;2022-10-23T16:15:35;19.40;72.70
25906;DHT22;13713;52.552;13.204;2022-10-23T16:18:01;19.40;72.70
25906;DHT22;13713;52.552;13.204;2022-10-23T16:20:27;19.50;72.80
25906;DHT22;13713;52.552;13.204;2022-10-23T16:22:52;19.40;72.70
25906;DHT22;13713;52.552;13.204;2022-10-23T16:25:19;19.50;72.90
25906;DHT22;13713;52.552;13.204;2022-10-23T16:27:45;19.40;72.70
25906;DHT22;13713;52.552;13.204;2022-10-23T16:30:11;19.40;72.80
25906;DHT22;13713;52.552;13.204;2022-10-23T16:32:39;19.40;72.80
25906;DHT22;13713;52.552;13.204;2022-10-23T16:35:05;19.40;72.80
25906;DHT22;13713;52.552;13.204;2022-10-23T16:37:39;19.40;72.80
25906;DHT22;13713;52.552;13.204;2022-10-23T16:40:10;19.40;72.80
25906;DHT22;13713;52.552;13.204;2022-10-23T16:42:56;19.40;73.20
25906;DHT22;13713;52.552;13.204;2022-10-23T16:45:31;19.40;72.80
25906;DHT22;13713;52.552;13.204;2022-10-23T16:47:57;19.40;72.80
25906;DHT22;13713;52.552;13.204;2022-10-23T16:50:22;19.40;72.80
25906;DHT22;13713;52.552;13.204;2022-10-23T16:52:48;19.40;73.60
25906;DHT22;13713;52.552;13.204;2022-10-23T16:55:13;19.40;72.80
25906;DHT22;13713;52.552;13.204;2022-10-23T16:57:39;19.40;72.80
25906;DHT22;13713;52.552;13.204;2022-10-23T17:00:06;19.40;72.80
25906;DHT22;13713;52.552;13.204;2022-10-23T17:02:32;19.40;72.90